createdAt,value
2017-12-19T00:00:11.400Z,1004.20
2017-12-19T00:01:11.343Z,1004.19
2017-12-19T00:02:11.352Z,1004.14
2017-12-19T00:03:11.318Z,1004.18
2017-12-19T00:04:11.338Z,1004.21
2017-12-19T00:05:11.272Z,1004.22
2017-12-19T00:06:11.179Z,1004.24
2017-12-19T00:07:11.260Z,1004.24
2017-12-19T00:08:11.222Z,1004.27
2017-12-19T00:09:11.203Z,1004.23
2017-12-19T00:10:11.160Z,1004.19
2017-12-19T00:11:11.104Z,1004.23
2017-12-19T00:12:11.187Z,1004.22
2017-12-19T00:13:11.089Z,1004.21
2017-12-19T00:14:11.050Z,1004.13
2017-12-19T00:15:11.093Z,1004.11
2017-12-19T00:16:11.066Z,1004.09
2017-12-19T00:17:10.886Z,1004.10
2017-12-19T00:18:10.872Z,1004.21
2017-12-19T00:19:10.857Z,1004.24
2017-12-19T00:20:10.909Z,1004.29
2017-12-19T00:21:10.892Z,1004.32
2017-12-19T00:22:10.854Z,1004.33
2017-12-19T00:23:10.896Z,1004.29
2017-12-19T00:24:11.694Z,1004.26
2017-12-19T00:25:10.761Z,1004.23
2017-12-19T00:26:10.760Z,1004.20
2017-12-19T00:27:10.771Z,1004.19
2017-12-19T00:28:10.625Z,1004.17
2017-12-19T00:29:10.614Z,1004.19
2017-12-19T00:30:10.791Z,1004.22
2017-12-19T00:31:10.609Z,1004.26
2017-12-19T00:32:10.559Z,1004.29
2017-12-19T00:33:10.578Z,1004.35
2017-12-19T00:34:10.485Z,1004.37
2017-12-19T00:35:12.132Z,1004.32
2017-12-19T00:36:10.668Z,1004.26
2017-12-19T00:37:10.436Z,1004.24
2017-12-19T00:38:10.541Z,1004.25
2017-12-19T00:39:10.462Z,1004.27
2017-12-19T00:40:10.409Z,1004.31
2017-12-19T00:41:10.412Z,1004.31
2017-12-19T00:42:10.377Z,1004.31
2017-12-19T00:43:10.405Z,1004.32
2017-12-19T00:44:10.380Z,1004.26
2017-12-19T00:45:10.306Z,1004.21
2017-12-19T00:46:10.342Z,1004.13
2017-12-19T00:47:10.271Z,1004.18
2017-12-19T00:48:10.156Z,1004.21
2017-12-19T00:49:10.174Z,1004.20
2017-12-19T00:50:10.233Z,1004.25
2017-12-19T00:51:10.206Z,1004.26
2017-12-19T00:52:10.146Z,1004.28
2017-12-19T00:53:10.091Z,1004.28
2017-12-19T00:54:10.163Z,1004.28
2017-12-19T00:55:10.096Z,1004.20
2017-12-19T00:56:10.449Z,1004.17
2017-12-19T00:57:09.974Z,1004.20
2017-12-19T00:58:10.041Z,1004.15
2017-12-19T00:59:09.893Z,1004.22
2017-12-19T01:00:09.890Z,1004.27
2017-12-19T01:01:09.969Z,1004.42
2017-12-19T01:02:09.876Z,1004.46
2017-12-19T01:03:09.820Z,1004.49
2017-12-19T01:04:09.805Z,1004.45
2017-12-19T01:05:09.804Z,1004.41
2017-12-19T01:06:09.760Z,1004.39
2017-12-19T01:07:09.751Z,1004.40
2017-12-19T01:08:09.698Z,1004.40
2017-12-19T01:09:09.732Z,1004.41
2017-12-19T01:10:09.694Z,1004.48
2017-12-19T01:11:09.628Z,1004.52
2017-12-19T01:12:09.631Z,1004.52
2017-12-19T01:13:09.603Z,1004.56
2017-12-19T01:14:09.562Z,1004.55
2017-12-19T01:15:09.541Z,1004.59
2017-12-19T01:16:09.607Z,1004.55
2017-12-19T01:17:09.509Z,1004.55
2017-12-19T01:18:09.529Z,1004.59
2017-12-19T01:19:09.518Z,1004.61
2017-12-19T01:20:09.575Z,1004.65
2017-12-19T01:21:09.500Z,1004.60
2017-12-19T01:22:09.438Z,1004.61
2017-12-19T01:23:09.473Z,1004.58
2017-12-19T01:24:09.333Z,1004.57
2017-12-19T01:25:09.357Z,1004.62
2017-12-19T01:26:09.404Z,1004.66
2017-12-19T01:27:09.257Z,1004.67
2017-12-19T01:28:09.296Z,1004.71
2017-12-19T01:29:09.204Z,1004.71
2017-12-19T01:30:09.283Z,1004.78
2017-12-19T01:31:10.121Z,1004.79
2017-12-19T01:32:09.152Z,1004.79
2017-12-19T01:33:09.109Z,1004.80
2017-12-19T01:34:09.116Z,1004.77
2017-12-19T01:35:09.455Z,1004.81
2017-12-19T01:36:09.103Z,1004.80
2017-12-19T01:37:09.045Z,1004.81
2017-12-19T01:38:09.036Z,1004.90
2017-12-19T01:39:09.013Z,1004.89
2017-12-19T01:40:08.916Z,1004.89
2017-12-19T01:41:09.035Z,1004.92
2017-12-19T01:42:08.961Z,1004.92
2017-12-19T01:43:08.847Z,1004.88
2017-12-19T01:44:08.874Z,1004.87
2017-12-19T01:45:08.851Z,1004.92
2017-12-19T01:46:08.928Z,1004.99
2017-12-19T01:47:08.820Z,1004.99
2017-12-19T01:48:08.812Z,1005.02
2017-12-19T01:49:08.885Z,1005.06
2017-12-19T01:50:08.769Z,1005.03
2017-12-19T01:51:09.604Z,1005.07
2017-12-19T01:52:08.704Z,1005.05
2017-12-19T01:53:08.614Z,1005.05
2017-12-19T01:54:08.647Z,1005.01
2017-12-19T01:55:08.612Z,1005.00
2017-12-19T01:56:08.572Z,1005.02
2017-12-19T01:57:08.623Z,1005.03
2017-12-19T01:58:08.569Z,1005.03
2017-12-19T01:59:08.462Z,1005.06
2017-12-19T02:00:08.595Z,1005.06
2017-12-19T02:01:08.494Z,1005.02
2017-12-19T02:02:08.467Z,1005.02
2017-12-19T02:03:08.418Z,1005.00
2017-12-19T02:04:08.396Z,1004.99
2017-12-19T02:05:08.404Z,1004.99
2017-12-19T02:06:08.469Z,1004.97
2017-12-19T02:07:08.361Z,1005.01
2017-12-19T02:08:08.470Z,1005.08
2017-12-19T02:09:08.250Z,1005.04
2017-12-19T02:10:08.287Z,1005.06
2017-12-19T02:11:08.301Z,1005.08
2017-12-19T02:12:08.247Z,1005.07
2017-12-19T02:13:08.270Z,1005.06
2017-12-19T02:14:08.265Z,1005.08
2017-12-19T02:15:08.139Z,1005.06
2017-12-19T02:16:08.142Z,1005.08
2017-12-19T02:17:08.085Z,1005.10
2017-12-19T02:18:08.074Z,1005.06
2017-12-19T02:19:08.002Z,1005.13
2017-12-19T02:20:08.052Z,1005.11
2017-12-19T02:21:08.107Z,1005.11
2017-12-19T02:22:08.046Z,1005.07
2017-12-19T02:23:07.901Z,1005.03
2017-12-19T02:24:07.899Z,1005.07
2017-12-19T02:25:07.914Z,1005.04
2017-12-19T02:26:07.904Z,1005.05
2017-12-19T02:27:07.918Z,1005.03
2017-12-19T02:28:07.912Z,1005.04
2017-12-19T02:29:07.856Z,1005.03
2017-12-19T02:30:08.655Z,1005.07
2017-12-19T02:31:07.802Z,1005.11
2017-12-19T02:32:07.873Z,1005.10
2017-12-19T02:33:07.731Z,1005.06
2017-12-19T02:34:07.709Z,1005.12
2017-12-19T02:35:07.682Z,1005.14
2017-12-19T02:36:07.593Z,1005.15
2017-12-19T02:37:07.607Z,1005.21
2017-12-19T02:38:07.573Z,1005.22
2017-12-19T02:39:07.604Z,1005.22
2017-12-19T02:40:07.618Z,1005.16
2017-12-19T02:41:07.470Z,1005.17
2017-12-19T02:42:07.446Z,1005.11
2017-12-19T02:43:07.448Z,1005.13
2017-12-19T02:44:07.443Z,1005.12
2017-12-19T02:45:07.388Z,1005.09
2017-12-19T02:46:07.460Z,1005.09
2017-12-19T02:47:07.394Z,1005.14
2017-12-19T02:48:07.348Z,1005.14
2017-12-19T02:49:07.333Z,1005.17
2017-12-19T02:50:07.326Z,1005.13
2017-12-19T02:51:07.238Z,1005.13
2017-12-19T02:52:07.290Z,1005.14
2017-12-19T02:53:07.211Z,1005.20
2017-12-19T02:54:07.156Z,1005.22
2017-12-19T02:55:07.217Z,1005.22
2017-12-19T02:56:07.135Z,1005.22
2017-12-19T02:57:07.214Z,1005.24
2017-12-19T02:58:07.129Z,1005.27
2017-12-19T02:59:07.089Z,1005.26
2017-12-19T03:00:07.064Z,1005.26
2017-12-19T03:01:07.145Z,1005.27
2017-12-19T03:02:07.038Z,1005.28
2017-12-19T03:03:06.914Z,1005.31
2017-12-19T03:04:07.022Z,1005.26
2017-12-19T03:05:06.890Z,1005.23
2017-12-19T03:06:06.930Z,1005.19
2017-12-19T03:07:06.955Z,1005.23
2017-12-19T03:08:06.796Z,1005.22
2017-12-19T03:09:06.849Z,1005.21
2017-12-19T03:10:06.790Z,1005.23
2017-12-19T03:11:06.770Z,1005.25
2017-12-19T03:12:06.817Z,1005.28
2017-12-19T03:13:06.718Z,1005.30
2017-12-19T03:14:06.746Z,1005.35
2017-12-19T03:15:06.735Z,1005.34
2017-12-19T03:16:06.694Z,1005.36
2017-12-19T03:17:06.730Z,1005.32
2017-12-19T03:18:06.575Z,1005.31
2017-12-19T03:19:06.688Z,1005.31
2017-12-19T03:20:06.560Z,1005.29
2017-12-19T03:21:06.570Z,1005.25
2017-12-19T03:22:06.551Z,1005.30
2017-12-19T03:23:06.464Z,1005.27
2017-12-19T03:24:06.466Z,1005.23
2017-12-19T03:25:06.465Z,1005.24
2017-12-19T03:26:06.356Z,1005.27
2017-12-19T03:27:06.441Z,1005.27
2017-12-19T03:28:06.404Z,1005.28
2017-12-19T03:29:06.424Z,1005.30
2017-12-19T03:30:09.145Z,1005.32
2017-12-19T03:31:06.290Z,1005.26
2017-12-19T03:32:06.344Z,1005.30
2017-12-19T03:33:06.447Z,1005.29
2017-12-19T03:36:33.245Z,1005.30
2017-12-19T03:37:33.509Z,1005.29
2017-12-19T03:43:31.741Z,1005.26
2017-12-19T04:05:45.994Z,1005.34
2017-12-19T04:09:40.492Z,1005.30
2017-12-19T04:14:13.426Z,1005.39
2017-12-19T04:15:11.830Z,1005.39
2017-12-19T04:18:56.391Z,1005.43
2017-12-19T04:19:55.616Z,1005.50
2017-12-19T04:20:55.107Z,1005.47
2017-12-19T04:21:55.658Z,1005.53
2017-12-19T04:22:55.567Z,1005.54
2017-12-19T04:23:56.062Z,1005.56
2017-12-19T04:24:55.139Z,1005.55
2017-12-19T04:25:55.098Z,1005.57
2017-12-19T04:26:54.957Z,1005.56
2017-12-19T04:27:55.949Z,1005.54
2017-12-19T04:28:55.616Z,1005.50
2017-12-19T04:29:54.868Z,1005.48
2017-12-19T04:30:54.827Z,1005.41
2017-12-19T04:31:55.654Z,1005.42
2017-12-19T04:32:55.654Z,1005.39
2017-12-19T04:33:55.121Z,1005.37
2017-12-19T04:34:54.224Z,1005.42
2017-12-19T04:35:54.078Z,1005.42
2017-12-19T04:36:53.974Z,1005.47
2017-12-19T04:37:58.813Z,1005.53
2017-12-19T04:38:53.993Z,1005.57
2017-12-19T04:39:54.183Z,1005.63
2017-12-19T04:40:54.016Z,1005.62
2017-12-19T04:41:54.002Z,1005.67
2017-12-19T04:42:54.308Z,1005.73
2017-12-19T04:43:53.977Z,1005.74
2017-12-19T04:44:53.897Z,1005.71
2017-12-19T04:47:43.167Z,1005.69
2017-12-19T04:48:46.177Z,1005.69
2017-12-19T04:49:41.129Z,1005.75
2017-12-19T04:50:42.902Z,1005.74
2017-12-19T04:51:39.432Z,1005.73
2017-12-19T04:52:39.684Z,1005.76
2017-12-19T04:53:39.461Z,1005.79
2017-12-19T04:54:40.214Z,1005.77
2017-12-19T04:55:39.913Z,1005.83
2017-12-19T04:56:39.319Z,1005.89
2017-12-19T04:57:47.167Z,1005.84
2017-12-19T04:58:40.162Z,1005.88
2017-12-19T04:59:39.854Z,1005.88
2017-12-19T05:00:39.768Z,1005.87
2017-12-19T05:01:39.666Z,1005.88
2017-12-19T05:02:40.794Z,1005.88
2017-12-19T05:03:39.167Z,1005.92
2017-12-19T05:04:43.019Z,1005.91
2017-12-19T05:05:46.604Z,1005.86
2017-12-19T05:07:31.477Z,1005.89
2017-12-19T05:10:20.984Z,1005.94
2017-12-19T05:11:15.159Z,1005.96
2017-12-19T05:12:12.885Z,1005.98
2017-12-19T05:20:36.705Z,1005.97
2017-12-19T05:21:37.734Z,1005.99
2017-12-19T05:22:37.653Z,1005.99
2017-12-19T05:23:37.619Z,1006.05
2017-12-19T05:24:36.624Z,1006.03
2017-12-19T05:25:36.588Z,1006.03
2017-12-19T05:26:36.651Z,1006.03
2017-12-19T05:27:36.629Z,1006.10
2017-12-19T05:28:36.527Z,1006.08
2017-12-19T05:29:37.134Z,1006.09
2017-12-19T05:30:36.454Z,1006.13
2017-12-19T05:31:36.438Z,1006.17
2017-12-19T05:32:35.716Z,1006.16
2017-12-19T05:33:35.804Z,1006.20
2017-12-19T05:34:35.542Z,1006.16
2017-12-19T05:35:35.727Z,1006.17
2017-12-19T05:36:35.645Z,1006.15
2017-12-19T05:37:35.542Z,1006.14
2017-12-19T05:38:35.581Z,1006.16
2017-12-19T05:39:37.061Z,1006.15
2017-12-19T05:40:35.460Z,1006.16
2017-12-19T05:41:35.473Z,1006.17
2017-12-19T05:42:35.464Z,1006.20
2017-12-19T05:43:35.435Z,1006.22
2017-12-19T05:44:35.603Z,1006.20
2017-12-19T05:45:35.343Z,1006.19
2017-12-19T05:46:35.295Z,1006.15
2017-12-19T05:47:35.432Z,1006.15
2017-12-19T05:48:35.318Z,1006.12
2017-12-19T05:49:35.265Z,1006.14
2017-12-19T05:50:35.336Z,1006.14
2017-12-19T05:51:35.258Z,1006.15
2017-12-19T05:52:35.223Z,1006.17
2017-12-19T05:53:35.133Z,1006.17
2017-12-19T05:54:35.011Z,1006.18
2017-12-19T05:55:35.225Z,1006.13
2017-12-19T05:56:35.084Z,1006.18
2017-12-19T05:57:35.144Z,1006.22
2017-12-19T05:58:35.167Z,1006.23
2017-12-19T05:59:35.048Z,1006.26
2017-12-19T06:00:35.151Z,1006.30
2017-12-19T06:01:34.979Z,1006.32
2017-12-19T06:02:35.001Z,1006.35
2017-12-19T06:03:34.874Z,1006.35
2017-12-19T06:04:34.866Z,1006.38
2017-12-19T06:05:34.932Z,1006.42
2017-12-19T06:06:34.914Z,1006.39
2017-12-19T06:07:34.746Z,1006.40
2017-12-19T06:08:34.677Z,1006.41
2017-12-19T06:09:34.838Z,1006.45
2017-12-19T06:10:34.782Z,1006.43
2017-12-19T06:11:34.648Z,1006.43
2017-12-19T06:12:34.650Z,1006.48
2017-12-19T06:13:34.818Z,1006.47
2017-12-19T06:14:34.747Z,1006.43
2017-12-19T06:15:34.758Z,1006.42
2017-12-19T06:16:34.638Z,1006.40
2017-12-19T06:17:34.469Z,1006.38
2017-12-19T06:18:34.579Z,1006.38
2017-12-19T06:19:34.721Z,1006.38
2017-12-19T06:20:34.472Z,1006.39
2017-12-19T06:21:34.403Z,1006.37
2017-12-19T06:22:34.391Z,1006.37
2017-12-19T06:23:34.583Z,1006.42
2017-12-19T06:24:34.683Z,1006.42
2017-12-19T06:25:34.416Z,1006.42
2017-12-19T06:26:34.509Z,1006.45
2017-12-19T06:27:34.642Z,1006.40
2017-12-19T06:28:34.442Z,1006.43
2017-12-19T06:29:34.553Z,1006.42
2017-12-19T06:30:34.487Z,1006.41
2017-12-19T06:31:34.615Z,1006.45
2017-12-19T06:32:34.474Z,1006.46
2017-12-19T06:33:34.308Z,1006.43
2017-12-19T06:34:34.374Z,1006.40
2017-12-19T06:35:34.140Z,1006.42
2017-12-19T06:36:34.199Z,1006.46
2017-12-19T06:37:34.191Z,1006.46
2017-12-19T06:38:34.225Z,1006.50
2017-12-19T06:39:34.220Z,1006.48
2017-12-19T06:40:34.599Z,1006.53
2017-12-19T06:41:34.155Z,1006.54
2017-12-19T06:42:34.516Z,1006.56
2017-12-19T06:43:34.035Z,1006.57
2017-12-19T06:44:34.011Z,1006.58
2017-12-19T06:45:34.209Z,1006.60
2017-12-19T06:46:34.062Z,1006.63
2017-12-19T06:47:34.170Z,1006.67
2017-12-19T06:48:33.763Z,1006.70
2017-12-19T06:49:34.139Z,1006.67
2017-12-19T06:50:33.885Z,1006.67
2017-12-19T06:51:33.740Z,1006.67
2017-12-19T06:52:33.790Z,1006.67
2017-12-19T06:53:34.011Z,1006.68
2017-12-19T06:54:33.812Z,1006.69
2017-12-19T06:55:34.116Z,1006.68
2017-12-19T06:56:34.272Z,1006.68
2017-12-19T06:57:33.575Z,1006.66
2017-12-19T06:58:33.748Z,1006.64
2017-12-19T06:59:33.606Z,1006.68
2017-12-19T07:00:33.499Z,1006.72
2017-12-19T07:01:33.695Z,1006.73
2017-12-19T07:02:33.700Z,1006.72
2017-12-19T07:03:33.313Z,1006.72
2017-12-19T07:04:33.334Z,1006.73
2017-12-19T07:05:33.570Z,1006.71
2017-12-19T07:06:33.403Z,1006.70
2017-12-19T07:07:33.475Z,1006.76
2017-12-19T07:08:33.499Z,1006.77
2017-12-19T07:09:33.391Z,1006.80
2017-12-19T07:10:33.304Z,1006.81
2017-12-19T07:11:33.328Z,1006.78
2017-12-19T07:12:33.157Z,1006.78
2017-12-19T07:13:33.123Z,1006.80
2017-12-19T07:14:33.386Z,1006.77
2017-12-19T07:15:33.233Z,1006.72
2017-12-19T07:16:33.090Z,1006.72
2017-12-19T07:17:33.445Z,1006.74
2017-12-19T07:18:33.093Z,1006.75
2017-12-19T07:19:33.074Z,1006.78
2017-12-19T07:20:33.130Z,1006.76
2017-12-19T07:21:32.938Z,1006.77
2017-12-19T07:22:33.032Z,1006.76
2017-12-19T07:23:32.971Z,1006.75
2017-12-19T07:24:33.084Z,1006.74
2017-12-19T07:25:33.077Z,1006.73
2017-12-19T07:26:32.759Z,1006.73
2017-12-19T07:27:33.036Z,1006.73
2017-12-19T07:28:32.916Z,1006.76
2017-12-19T07:29:32.784Z,1006.75
2017-12-19T07:30:33.355Z,1006.78
2017-12-19T07:31:33.519Z,1006.75
2017-12-19T07:32:33.768Z,1006.79
2017-12-19T07:33:32.848Z,1006.75
2017-12-19T07:35:53.044Z,1006.66
2017-12-19T07:36:52.770Z,1006.68
2017-12-19T07:37:52.701Z,1006.65
2017-12-19T07:38:52.895Z,1006.63
2017-12-19T07:39:53.204Z,1006.64
2017-12-19T07:40:52.740Z,1006.65
2017-12-19T07:41:52.764Z,1006.69
2017-12-19T07:42:53.448Z,1006.72
2017-12-19T07:43:52.863Z,1006.77
2017-12-19T07:44:52.813Z,1006.75
2017-12-19T07:45:53.551Z,1006.75
2017-12-19T07:46:52.846Z,1006.81
2017-12-19T07:47:53.023Z,1006.81
2017-12-19T07:48:52.631Z,1006.80
2017-12-19T07:49:52.670Z,1006.81
2017-12-19T07:50:52.624Z,1006.81
2017-12-19T07:51:52.594Z,1006.86
2017-12-19T07:52:52.557Z,1006.91
2017-12-19T07:53:52.583Z,1006.93
2017-12-19T07:54:53.145Z,1006.94
2017-12-19T07:55:52.600Z,1006.93
2017-12-19T07:56:52.265Z,1006.96
2017-12-19T07:57:52.119Z,1006.97
2017-12-19T07:58:52.041Z,1007.00
2017-12-19T07:59:52.064Z,1007.04
2017-12-19T08:00:51.990Z,1007.05
2017-12-19T08:01:52.021Z,1007.03
2017-12-19T08:02:52.054Z,1007.02
2017-12-19T08:03:51.911Z,1007.09
2017-12-19T08:04:52.076Z,1007.08
2017-12-19T08:05:51.898Z,1007.14
2017-12-19T08:06:51.934Z,1007.12
2017-12-19T08:07:53.771Z,1007.15
2017-12-19T08:08:53.976Z,1007.17
2017-12-19T08:09:51.897Z,1007.19
2017-12-19T08:10:51.827Z,1007.18
2017-12-19T08:11:51.813Z,1007.21
2017-12-19T08:12:51.769Z,1007.21
2017-12-19T08:13:51.799Z,1007.23
2017-12-19T08:14:51.662Z,1007.23
2017-12-19T08:15:51.866Z,1007.19
2017-12-19T08:16:51.735Z,1007.25
2017-12-19T08:17:51.702Z,1007.29
2017-12-19T08:18:51.573Z,1007.29
2017-12-19T08:19:51.634Z,1007.33
2017-12-19T08:20:51.583Z,1007.33
2017-12-19T08:21:51.591Z,1007.34
2017-12-19T08:22:51.540Z,1007.38
2017-12-19T08:23:51.505Z,1007.39
2017-12-19T08:24:51.579Z,1007.36
2017-12-19T08:25:51.465Z,1007.40
2017-12-19T08:26:51.486Z,1007.39
2017-12-19T08:27:51.403Z,1007.38
2017-12-19T08:28:51.410Z,1007.36
2017-12-19T08:29:51.494Z,1007.31
2017-12-19T08:30:51.371Z,1007.33
2017-12-19T08:31:54.311Z,1007.32
2017-12-19T08:32:51.484Z,1007.28
2017-12-19T08:33:51.345Z,1007.25
2017-12-19T08:34:51.516Z,1007.21
2017-12-19T08:35:51.482Z,1007.21
2017-12-19T08:36:51.140Z,1007.17
2017-12-19T08:37:51.157Z,1007.18
2017-12-19T08:38:51.164Z,1007.18
2017-12-19T08:39:51.091Z,1007.22
2017-12-19T08:40:51.102Z,1007.27
2017-12-19T08:41:51.053Z,1007.31
2017-12-19T08:42:51.021Z,1007.34
2017-12-19T08:43:51.017Z,1007.35
2017-12-19T08:44:50.945Z,1007.36
2017-12-19T08:45:50.928Z,1007.45
2017-12-19T08:46:50.926Z,1007.52
2017-12-19T08:47:50.876Z,1007.55
2017-12-19T08:48:50.853Z,1007.54
2017-12-19T08:49:50.884Z,1007.51
2017-12-19T08:50:50.807Z,1007.52
2017-12-19T08:51:50.904Z,1007.59
2017-12-19T08:52:50.760Z,1007.66
2017-12-19T08:53:50.746Z,1007.66
2017-12-19T08:54:50.717Z,1007.64
2017-12-19T08:55:50.697Z,1007.63
2017-12-19T08:56:50.672Z,1007.61
2017-12-19T08:57:50.663Z,1007.66
2017-12-19T08:58:50.623Z,1007.68
2017-12-19T08:59:50.597Z,1007.68
2017-12-19T09:00:50.607Z,1007.67
2017-12-19T09:01:50.588Z,1007.71
2017-12-19T09:02:50.581Z,1007.69
2017-12-19T09:03:50.527Z,1007.69
2017-12-19T09:04:50.537Z,1007.73
2017-12-19T09:05:50.468Z,1007.72
2017-12-19T09:06:50.435Z,1007.70
2017-12-19T09:07:50.540Z,1007.68
2017-12-19T09:08:50.438Z,1007.64
2017-12-19T09:09:50.404Z,1007.63
2017-12-19T09:10:50.356Z,1007.61
2017-12-19T09:11:50.309Z,1007.64
2017-12-19T09:12:50.430Z,1007.71
2017-12-19T09:13:50.303Z,1007.71
2017-12-19T09:14:50.376Z,1007.77
2017-12-19T09:15:50.299Z,1007.78
2017-12-19T09:16:50.208Z,1007.81
2017-12-19T09:17:50.421Z,1007.75
2017-12-19T09:18:51.726Z,1007.76
2017-12-19T09:19:50.157Z,1007.75
2017-12-19T09:20:50.134Z,1007.78
2017-12-19T09:21:50.287Z,1007.73
2017-12-19T09:22:50.130Z,1007.74
2017-12-19T09:23:50.038Z,1007.72
2017-12-19T09:24:50.203Z,1007.72
2017-12-19T09:25:50.130Z,1007.77
2017-12-19T09:26:50.768Z,1007.78
2017-12-19T09:27:50.208Z,1007.79
2017-12-19T09:28:49.979Z,1007.79
2017-12-19T09:29:50.150Z,1007.82
2017-12-19T09:30:50.928Z,1007.87
2017-12-19T09:31:50.091Z,1007.86
2017-12-19T09:32:50.082Z,1007.93
2017-12-19T09:33:49.840Z,1007.92
2017-12-19T09:34:49.815Z,1007.94
2017-12-19T09:35:49.782Z,1007.94
2017-12-19T09:40:37.951Z,1007.94
2017-12-19T09:43:54.591Z,1007.91
2017-12-19T09:44:55.539Z,1007.97
2017-12-19T09:46:54.000Z,1008.00
2017-12-19T09:47:54.348Z,1007.95
2017-12-19T09:58:46.973Z,1008.17
2017-12-19T09:59:47.453Z,1008.16
2017-12-19T10:00:47.363Z,1008.18
2017-12-19T10:01:46.826Z,1008.12
2017-12-19T10:02:46.309Z,1008.14
2017-12-19T10:03:46.161Z,1008.13
2017-12-19T10:08:54.159Z,1007.96
2017-12-19T10:09:54.840Z,1008.00
2017-12-19T10:10:54.882Z,1008.03
2017-12-19T10:11:55.381Z,1008.05
2017-12-19T10:12:55.415Z,1008.08
2017-12-19T10:13:54.485Z,1008.04
2017-12-19T10:14:55.334Z,1007.99
2017-12-19T10:15:54.669Z,1007.93
2017-12-19T10:16:53.897Z,1007.90
2017-12-19T10:17:53.828Z,1007.91
2017-12-19T10:18:53.789Z,1007.96
2017-12-19T10:19:54.379Z,1008.01
2017-12-19T10:20:53.778Z,1008.00
2017-12-19T10:21:53.338Z,1008.01
2017-12-19T10:22:53.302Z,1008.03
2017-12-19T10:23:53.285Z,1008.05
2017-12-19T10:24:53.255Z,1008.10
2017-12-19T10:25:53.231Z,1008.12
2017-12-19T10:26:53.278Z,1008.04
2017-12-19T10:27:53.417Z,1008.05
2017-12-19T10:28:53.378Z,1008.10
2017-12-19T10:29:53.191Z,1008.12
2017-12-19T10:30:53.298Z,1008.16
2017-12-19T10:31:53.130Z,1008.21
2017-12-19T10:32:53.069Z,1008.24
2017-12-19T10:33:53.017Z,1008.25
2017-12-19T10:34:53.026Z,1008.26
2017-12-19T10:35:53.051Z,1008.24
2017-12-19T10:36:52.937Z,1008.19
2017-12-19T10:37:52.984Z,1008.16
2017-12-19T10:38:52.955Z,1008.13
2017-12-19T10:39:52.894Z,1008.01
2017-12-19T10:40:52.899Z,1007.88
2017-12-19T10:41:52.857Z,1007.86
2017-12-19T10:42:52.838Z,1007.88
2017-12-19T10:43:52.840Z,1007.90
2017-12-19T10:44:52.777Z,1007.90
2017-12-19T10:45:53.476Z,1007.83
2017-12-19T10:46:52.765Z,1007.82
2017-12-19T10:47:52.758Z,1007.78
2017-12-19T10:48:52.746Z,1007.78
2017-12-19T10:49:52.666Z,1007.77
2017-12-19T10:50:52.692Z,1007.81
2017-12-19T10:51:52.635Z,1007.79
2017-12-19T10:52:52.607Z,1007.77
2017-12-19T10:53:52.594Z,1007.75
2017-12-19T10:54:52.602Z,1007.68
2017-12-19T10:55:52.525Z,1007.68
2017-12-19T10:56:52.509Z,1007.72
2017-12-19T10:57:52.510Z,1007.76
2017-12-19T10:58:52.472Z,1007.80
2017-12-19T10:59:52.509Z,1007.80
2017-12-19T11:00:52.428Z,1007.75
2017-12-19T11:01:52.421Z,1007.72
2017-12-19T11:02:52.422Z,1007.76
2017-12-19T11:03:52.398Z,1007.79
2017-12-19T11:04:52.311Z,1007.77
2017-12-19T11:05:52.325Z,1007.67
2017-12-19T11:06:52.264Z,1007.65
2017-12-19T11:07:52.232Z,1007.61
2017-12-19T11:08:52.285Z,1007.59
2017-12-19T11:09:52.219Z,1007.56
2017-12-19T11:10:52.200Z,1007.52
2017-12-19T11:11:52.213Z,1007.52
2017-12-19T11:12:52.169Z,1007.50
2017-12-19T11:13:52.259Z,1007.52
2017-12-19T11:14:52.127Z,1007.53
2017-12-19T11:15:52.109Z,1007.52
2017-12-19T11:16:52.045Z,1007.50
2017-12-19T11:17:52.038Z,1007.51
2017-12-19T11:18:51.985Z,1007.57
2017-12-19T11:19:51.983Z,1007.60
2017-12-19T11:20:52.000Z,1007.60
2017-12-19T11:21:51.959Z,1007.66
2017-12-19T11:22:51.933Z,1007.64
2017-12-19T11:23:51.893Z,1007.68
2017-12-19T11:24:51.920Z,1007.68
2017-12-19T11:25:51.880Z,1007.67
2017-12-19T11:26:51.883Z,1007.65
2017-12-19T11:27:51.869Z,1007.65
2017-12-19T11:28:51.759Z,1007.66
2017-12-19T11:29:51.808Z,1007.66
2017-12-19T11:30:51.757Z,1007.66
2017-12-19T11:31:51.730Z,1007.68
2017-12-19T11:32:51.703Z,1007.65
2017-12-19T11:33:52.527Z,1007.64
2017-12-19T11:34:51.660Z,1007.69
2017-12-19T11:35:51.651Z,1007.70
2017-12-19T11:36:51.633Z,1007.66
2017-12-19T11:37:51.611Z,1007.67
2017-12-19T11:38:51.573Z,1007.67
2017-12-19T11:39:51.513Z,1007.68
2017-12-19T11:40:51.571Z,1007.68
2017-12-19T11:41:51.487Z,1007.63
2017-12-19T11:42:51.507Z,1007.64
2017-12-19T11:43:51.474Z,1007.60
2017-12-19T11:44:51.406Z,1007.61
2017-12-19T11:45:51.417Z,1007.52
2017-12-19T11:46:51.401Z,1007.50
2017-12-19T11:47:51.344Z,1007.49
2017-12-19T11:48:51.359Z,1007.52
2017-12-19T11:49:51.303Z,1007.52
2017-12-19T11:50:51.284Z,1007.57
2017-12-19T11:51:51.248Z,1007.57
2017-12-19T11:52:51.252Z,1007.51
2017-12-19T11:53:51.396Z,1007.50
2017-12-19T11:54:51.169Z,1007.52
2017-12-19T11:55:51.190Z,1007.52
2017-12-19T11:56:51.196Z,1007.54
2017-12-19T11:57:51.284Z,1007.54
2017-12-19T11:58:51.138Z,1007.51
2017-12-19T11:59:51.083Z,1007.53
2017-12-19T12:00:51.091Z,1007.50
2017-12-19T12:01:51.070Z,1007.57
2017-12-19T12:02:51.108Z,1007.54
2017-12-19T12:03:53.498Z,1007.49
2017-12-19T12:04:50.988Z,1007.43
2017-12-19T12:05:50.983Z,1007.46
2017-12-19T12:06:50.944Z,1007.44
2017-12-19T12:07:50.871Z,1007.42
2017-12-19T12:08:50.860Z,1007.45
2017-12-19T12:09:50.865Z,1007.39
2017-12-19T12:10:50.825Z,1007.40
2017-12-19T12:11:50.976Z,1007.46
2017-12-19T12:12:50.890Z,1007.49
2017-12-19T12:13:50.727Z,1007.45
2017-12-19T12:14:50.721Z,1007.47
2017-12-19T12:15:50.687Z,1007.50
2017-12-19T12:16:50.729Z,1007.51
2017-12-19T12:17:50.647Z,1007.49
2017-12-19T12:18:50.619Z,1007.46
2017-12-19T12:19:50.621Z,1007.47
2017-12-19T12:20:50.626Z,1007.45
2017-12-19T12:21:50.568Z,1007.45
2017-12-19T12:22:50.582Z,1007.44
2017-12-19T12:23:50.550Z,1007.45
2017-12-19T12:24:50.526Z,1007.38
2017-12-19T12:25:50.469Z,1007.42
2017-12-19T12:26:50.547Z,1007.45
2017-12-19T12:27:50.456Z,1007.44
2017-12-19T12:28:50.409Z,1007.46
2017-12-19T12:29:50.418Z,1007.47
2017-12-19T12:30:50.352Z,1007.48
2017-12-19T12:31:50.362Z,1007.49
2017-12-19T12:32:50.367Z,1007.54
2017-12-19T12:33:50.304Z,1007.49
2017-12-19T12:34:50.298Z,1007.54
2017-12-19T12:35:50.281Z,1007.54
2017-12-19T12:36:50.231Z,1007.55
2017-12-19T12:37:50.209Z,1007.61
2017-12-19T12:38:50.246Z,1007.63
2017-12-19T12:39:50.150Z,1007.59
2017-12-19T12:40:50.207Z,1007.60
2017-12-19T12:41:53.006Z,1007.53
2017-12-19T12:42:50.136Z,1007.49
2017-12-19T12:43:50.108Z,1007.48
2017-12-19T12:44:50.089Z,1007.46
2017-12-19T12:45:50.030Z,1007.47
2017-12-19T12:46:50.010Z,1007.44
2017-12-19T12:47:50.024Z,1007.42
2017-12-19T12:48:49.963Z,1007.43
2017-12-19T12:49:49.951Z,1007.42
2017-12-19T12:50:49.918Z,1007.42
2017-12-19T12:51:49.910Z,1007.44
2017-12-19T12:52:49.876Z,1007.39
2017-12-19T12:53:49.860Z,1007.39
2017-12-19T12:54:49.814Z,1007.38
2017-12-19T12:55:49.799Z,1007.38
2017-12-19T12:56:49.824Z,1007.40
2017-12-19T12:57:49.746Z,1007.37
2017-12-19T12:58:49.747Z,1007.33
2017-12-19T12:59:49.699Z,1007.36
2017-12-19T13:00:49.715Z,1007.34
2017-12-19T13:01:49.708Z,1007.34
2017-12-19T13:02:49.645Z,1007.36
2017-12-19T13:03:49.677Z,1007.33
2017-12-19T13:04:49.640Z,1007.30
2017-12-19T13:05:49.557Z,1007.32
2017-12-19T13:06:49.625Z,1007.34
2017-12-19T13:07:49.530Z,1007.30
2017-12-19T13:08:49.493Z,1007.30
2017-12-19T13:09:49.520Z,1007.30
2017-12-19T13:10:49.513Z,1007.28
2017-12-19T13:11:49.550Z,1007.29
2017-12-19T13:12:49.455Z,1007.32
2017-12-19T13:13:49.380Z,1007.33
2017-12-19T13:14:49.364Z,1007.34
2017-12-19T13:15:49.454Z,1007.33
2017-12-19T13:16:49.312Z,1007.24